createdAt,value
2018-11-14T00:02:25.681Z,6.70
2018-11-14T00:04:53.322Z,6.70
2018-11-14T00:07:20.828Z,6.70
2018-11-14T00:09:51.273Z,6.60
2018-11-14T00:12:18.788Z,6.60
2018-11-14T00:14:46.509Z,6.60
2018-11-14T00:17:14.069Z,6.50
2018-11-14T00:19:41.587Z,6.50
2018-11-14T00:22:09.201Z,6.40
2018-11-14T00:24:36.749Z,6.40
2018-11-14T00:27:04.346Z,6.30
2018-11-14T00:29:32.170Z,6.30
2018-11-14T00:31:59.652Z,6.30
2018-11-14T00:34:27.331Z,6.30
2018-11-14T00:36:54.983Z,6.20
2018-11-14T00:39:22.461Z,6.20
2018-11-14T00:41:50.796Z,6.10
2018-11-14T00:44:18.346Z,6.10
2018-11-14T00:46:45.976Z,6.00
2018-11-14T00:49:13.532Z,6.00
2018-11-14T00:51:41.090Z,5.90
2018-11-14T00:54:08.632Z,5.90
2018-11-14T00:56:36.206Z,5.80
2018-11-14T00:59:03.890Z,5.80
2018-11-14T01:01:31.555Z,5.70
2018-11-14T01:03:59.166Z,5.70
2018-11-14T01:06:26.927Z,5.70
2018-11-14T01:08:54.476Z,5.70
2018-11-14T01:11:21.998Z,5.60
2018-11-14T01:13:49.512Z,5.60
2018-11-14T01:16:17.116Z,5.60
2018-11-14T01:18:44.913Z,5.60
2018-11-14T01:21:12.464Z,5.60
2018-11-14T01:23:39.992Z,5.60
2018-11-14T01:26:07.551Z,5.60
2018-11-14T01:28:35.096Z,5.50
2018-11-14T01:31:02.664Z,5.50
2018-11-14T01:33:30.430Z,5.50
2018-11-14T01:35:58.503Z,5.40
2018-11-14T01:38:25.734Z,5.40
2018-11-14T01:40:53.318Z,5.40
2018-11-14T01:43:20.856Z,5.30
2018-11-14T01:45:48.488Z,5.20
2018-11-14T01:48:16.064Z,5.20
2018-11-14T01:50:43.609Z,5.10
2018-11-14T01:53:11.153Z,5.10
2018-11-14T01:55:38.677Z,5.10
2018-11-14T01:58:06.207Z,5.10
2018-11-14T02:00:33.789Z,5.10
2018-11-14T02:03:01.536Z,5.10
2018-11-14T02:05:29.285Z,5.00
2018-11-14T02:07:56.965Z,5.00
2018-11-14T02:10:24.559Z,5.00
2018-11-14T02:12:52.091Z,5.00
2018-11-14T02:15:21.671Z,5.00
2018-11-14T02:17:49.270Z,5.00
2018-11-14T02:20:16.916Z,5.00
2018-11-14T02:22:44.900Z,5.00
2018-11-14T02:25:13.375Z,5.00
2018-11-14T02:27:41.167Z,5.10
2018-11-14T02:30:10.488Z,5.10
2018-11-14T02:32:38.090Z,5.00
2018-11-14T02:35:05.937Z,5.00
2018-11-14T02:37:33.830Z,5.00
2018-11-14T02:40:02.020Z,5.00
2018-11-14T02:42:30.565Z,5.00
2018-11-14T02:44:59.206Z,5.00
2018-11-14T02:47:27.317Z,5.00
2018-11-14T02:49:55.036Z,4.90
2018-11-14T02:52:22.583Z,4.90
2018-11-14T02:54:50.114Z,4.90
2018-11-14T02:57:18.129Z,4.80
2018-11-14T02:59:45.755Z,4.80
2018-11-14T03:02:13.346Z,4.80
2018-11-14T03:04:40.955Z,4.70
2018-11-14T03:07:08.478Z,4.70
2018-11-14T03:09:36.047Z,4.70
2018-11-14T03:12:04.424Z,4.70
2018-11-14T03:14:32.400Z,4.60
2018-11-14T03:17:00.587Z,4.60
2018-11-14T03:19:30.484Z,4.60
2018-11-14T03:21:58.796Z,4.60
2018-11-14T03:24:26.500Z,4.50
2018-11-14T03:26:54.112Z,4.50
2018-11-14T03:29:21.630Z,4.50
2018-11-14T03:31:49.353Z,4.40
2018-11-14T03:34:17.228Z,4.40
2018-11-14T03:36:44.933Z,4.40
2018-11-14T03:39:12.577Z,4.40
2018-11-14T03:41:40.174Z,4.40
2018-11-14T03:44:07.716Z,4.30
2018-11-14T03:46:35.254Z,4.30
2018-11-14T03:49:03.032Z,4.30
2018-11-14T03:51:31.334Z,4.20
2018-11-14T03:53:59.541Z,4.20
2018-11-14T03:56:27.949Z,4.20
2018-11-14T03:58:55.493Z,4.10
2018-11-14T04:01:22.999Z,4.10
2018-11-14T04:03:50.525Z,4.10
2018-11-14T04:06:18.340Z,4.00
2018-11-14T04:08:45.965Z,4.00
2018-11-14T04:11:13.511Z,4.00
2018-11-14T04:13:41.036Z,4.00
2018-11-14T04:16:08.583Z,4.00
2018-11-14T04:18:36.153Z,4.00
2018-11-14T04:21:04.107Z,3.90
2018-11-14T04:23:31.933Z,3.90
2018-11-14T04:26:00.144Z,3.90
2018-11-14T04:28:28.497Z,3.90
2018-11-14T04:30:56.157Z,3.80
2018-11-14T04:33:23.759Z,3.80
2018-11-14T04:35:51.323Z,3.80
2018-11-14T04:38:18.967Z,3.80
2018-11-14T04:40:46.809Z,3.80
2018-11-14T04:43:14.373Z,3.70
2018-11-14T04:45:41.926Z,3.70
2018-11-14T04:48:09.607Z,3.70
2018-11-14T04:50:37.087Z,3.70
2018-11-14T04:53:04.894Z,3.70
2018-11-14T04:55:32.751Z,3.70
2018-11-14T04:58:00.943Z,3.70
2018-11-14T05:00:29.143Z,3.70
2018-11-14T05:02:57.042Z,3.70
2018-11-14T05:05:24.837Z,3.70
2018-11-14T05:07:52.406Z,3.60
2018-11-14T05:10:22.207Z,3.50
2018-11-14T05:12:50.376Z,3.30
2018-11-14T05:15:20.356Z,3.20
2018-11-14T05:17:48.923Z,3.30
2018-11-14T05:20:17.642Z,3.40
2018-11-14T05:22:45.604Z,3.50
2018-11-14T05:25:13.475Z,3.60
2018-11-14T05:27:41.136Z,3.60
2018-11-14T05:30:10.414Z,3.60
2018-11-14T05:32:38.065Z,3.70
2018-11-14T05:35:07.028Z,3.80
2018-11-14T05:37:34.678Z,3.90
2018-11-14T05:40:02.636Z,4.00
2018-11-14T05:42:30.685Z,4.00
2018-11-14T05:44:58.752Z,4.00
2018-11-14T05:47:26.534Z,4.10
2018-11-14T05:49:54.174Z,4.20
2018-11-14T05:52:21.713Z,4.20
2018-11-14T05:54:49.318Z,4.20
2018-11-14T05:57:17.035Z,4.80
2018-11-14T05:59:44.562Z,5.70
2018-11-14T06:02:12.106Z,6.40
2018-11-14T06:04:39.654Z,6.90
2018-11-14T06:07:07.274Z,7.20
2018-11-14T06:09:34.810Z,7.10
2018-11-14T06:12:02.694Z,6.90
2018-11-14T06:14:30.356Z,6.60
2018-11-14T06:16:58.347Z,6.30
2018-11-14T06:19:25.968Z,6.10
2018-11-14T06:21:53.552Z,6.00
2018-11-14T06:24:21.078Z,5.90
2018-11-14T06:26:48.796Z,5.80
2018-11-14T06:29:16.536Z,5.70
2018-11-14T06:31:44.152Z,5.70
2018-11-14T06:34:11.748Z,5.70
2018-11-14T06:36:39.282Z,5.60
2018-11-14T06:39:09.211Z,5.70
2018-11-14T06:41:37.066Z,5.60
2018-11-14T06:44:04.962Z,5.70
2018-11-14T06:46:33.030Z,5.70
2018-11-14T06:49:01.164Z,5.90
2018-11-14T06:51:29.645Z,6.30
2018-11-14T06:53:58.444Z,6.40
2018-11-14T06:56:26.170Z,6.60
2018-11-14T06:58:54.033Z,6.90
2018-11-14T07:01:21.581Z,7.10
2018-11-14T07:03:49.229Z,7.20
2018-11-14T07:06:16.975Z,7.30
2018-11-14T07:08:44.545Z,7.30
2018-11-14T07:11:12.128Z,7.20
2018-11-14T07:13:39.605Z,7.10
2018-11-14T07:16:07.186Z,7.10
2018-11-14T07:18:34.777Z,7.20
2018-11-14T07:21:02.657Z,7.20
2018-11-14T07:23:30.871Z,7.30
2018-11-14T07:25:59.200Z,7.40
2018-11-14T07:28:27.248Z,7.50
2018-11-14T07:30:55.041Z,7.60
2018-11-14T07:33:22.589Z,7.60
2018-11-14T07:35:50.133Z,7.60
2018-11-14T07:38:32.006Z,7.60
2018-11-14T07:41:01.424Z,7.60
2018-11-14T07:43:30.276Z,7.80
2018-11-14T07:45:58.668Z,8.00
2018-11-14T07:48:26.334Z,8.40
2018-11-14T07:50:53.949Z,8.70
2018-11-14T07:53:21.581Z,8.60
2018-11-14T07:55:49.196Z,8.40
2018-11-14T07:58:16.816Z,8.20
2018-11-14T08:00:44.437Z,8.00
2018-11-14T08:03:12.407Z,7.80
2018-11-14T08:05:39.947Z,7.60
2018-11-14T08:08:07.526Z,7.50
2018-11-14T08:10:35.121Z,7.40
2018-11-14T08:13:02.949Z,7.40
2018-11-14T08:15:31.295Z,7.30
2018-11-14T08:17:59.483Z,7.30
2018-11-14T08:20:27.551Z,7.30
2018-11-14T08:22:55.348Z,7.30
2018-11-14T08:25:23.143Z,7.20
2018-11-14T08:27:50.706Z,7.30
2018-11-14T08:30:18.295Z,7.70
2018-11-14T08:32:45.889Z,8.00
2018-11-14T08:35:13.509Z,8.00
2018-11-14T08:37:41.117Z,7.90
2018-11-14T08:40:09.690Z,7.80
2018-11-14T08:42:37.786Z,7.70
2018-11-14T08:45:07.066Z,7.70
2018-11-14T08:47:34.752Z,7.60
2018-11-14T08:50:02.421Z,7.50
2018-11-14T08:52:30.049Z,7.80
2018-11-14T08:54:57.638Z,8.40
2018-11-14T08:57:25.188Z,9.00
2018-11-14T08:59:52.780Z,9.50
2018-11-14T09:02:20.344Z,9.60
2018-11-14T09:04:48.030Z,9.90
2018-11-14T09:07:15.581Z,9.90
2018-11-14T09:09:43.194Z,9.80
2018-11-14T09:12:10.745Z,9.70
2018-11-14T09:14:38.372Z,9.50
2018-11-14T09:17:06.471Z,9.40
2018-11-14T09:19:34.018Z,9.40
2018-11-14T09:22:01.656Z,9.30
2018-11-14T09:24:29.620Z,9.20
2018-11-14T09:26:57.289Z,9.00
2018-11-14T09:29:24.863Z,8.90
2018-11-14T09:31:52.410Z,8.70
2018-11-14T09:34:20.162Z,8.60
2018-11-14T09:36:47.797Z,8.50
2018-11-14T09:39:15.357Z,8.40
2018-11-14T09:41:42.898Z,8.40
2018-11-14T09:44:10.426Z,8.40
2018-11-14T09:46:37.984Z,8.40
2018-11-14T09:49:05.906Z,8.30
2018-11-14T09:51:33.858Z,8.30
2018-11-14T09:54:01.539Z,8.30
2018-11-14T09:56:33.682Z,8.30
2018-11-14T09:59:01.344Z,8.40
2018-11-14T10:01:28.987Z,8.40
2018-11-14T10:03:56.645Z,8.50
2018-11-14T10:06:24.164Z,8.50
2018-11-14T10:08:51.807Z,8.40
2018-11-14T10:11:19.367Z,8.30
2018-11-14T10:13:47.104Z,8.30
2018-11-14T10:16:14.702Z,8.20
2018-11-14T10:18:42.243Z,8.30
2018-11-14T10:21:09.845Z,8.30
2018-11-14T10:23:37.387Z,8.40
2018-11-14T10:26:05.000Z,8.40
2018-11-14T10:28:32.617Z,8.40
2018-11-14T10:31:00.340Z,8.40
2018-11-14T10:33:28.066Z,8.40
2018-11-14T10:35:55.614Z,8.40
2018-11-14T10:38:23.152Z,8.30
2018-11-14T10:40:50.672Z,8.30
2018-11-14T10:43:18.318Z,8.30
2018-11-14T10:45:45.876Z,8.30
2018-11-14T10:48:13.488Z,8.40
2018-11-14T10:50:41.078Z,8.50
2018-11-14T10:53:08.633Z,8.60
2018-11-14T10:55:36.157Z,8.70
2018-11-14T10:58:04.057Z,8.70
2018-11-14T11:00:37.384Z,8.80
2018-11-14T11:03:10.613Z,8.80
2018-11-14T11:07:47.718Z,8.80
2018-11-14T11:10:20.737Z,8.70
2018-11-14T11:12:53.961Z,8.80
2018-11-14T11:15:26.033Z,8.70
2018-11-14T11:17:59.251Z,8.70
2018-11-14T11:20:26.865Z,8.60
2018-11-14T11:22:54.423Z,8.60
2018-11-14T11:25:21.957Z,8.60
2018-11-14T11:27:49.581Z,8.60
2018-11-14T11:30:17.261Z,8.60
2018-11-14T11:32:44.806Z,8.60
2018-11-14T11:35:12.409Z,8.60
2018-11-14T11:37:39.953Z,8.60
2018-11-14T11:40:07.693Z,8.60
2018-11-14T11:42:35.247Z,8.50
2018-11-14T11:45:02.919Z,8.50
2018-11-14T11:47:30.635Z,8.50
2018-11-14T11:49:58.297Z,8.50
2018-11-14T11:52:25.851Z,8.40
2018-11-14T11:54:53.381Z,8.40
2018-11-14T11:57:20.994Z,8.40
2018-11-14T11:59:48.724Z,8.40
2018-11-14T12:02:16.265Z,8.30
2018-11-14T12:04:43.756Z,8.30
2018-11-14T12:07:11.301Z,8.30
2018-11-14T12:09:38.861Z,8.30
2018-11-14T12:12:06.495Z,8.30
2018-11-14T12:14:34.065Z,8.30
2018-11-14T12:17:01.719Z,8.30
2018-11-14T12:19:29.355Z,8.40
2018-11-14T12:21:57.006Z,8.40
2018-11-14T12:24:24.589Z,8.50
2018-11-14T12:26:52.168Z,8.60
2018-11-14T12:29:19.756Z,8.60
2018-11-14T12:31:47.350Z,8.60
2018-11-14T12:34:14.947Z,8.60
2018-11-14T12:36:42.503Z,8.60
2018-11-14T12:39:10.098Z,8.60
2018-11-14T12:41:37.628Z,8.60
2018-11-14T12:44:05.229Z,8.60
2018-11-14T12:46:32.890Z,8.60
2018-11-14T12:49:00.690Z,8.60
2018-11-14T12:51:28.407Z,8.50
2018-11-14T12:53:56.018Z,8.50
2018-11-14T12:56:23.638Z,8.50
2018-11-14T12:58:51.209Z,8.50
2018-11-14T13:01:18.846Z,8.50
2018-11-14T13:03:46.460Z,8.60
2018-11-14T13:06:14.043Z,8.60
2018-11-14T13:08:41.654Z,8.60
2018-11-14T13:11:09.242Z,8.60
2018-11-14T13:13:42.425Z,8.60
2018-11-14T13:16:10.026Z,8.60
2018-11-14T13:18:37.604Z,8.60
2018-11-14T13:21:05.554Z,8.50
2018-11-14T13:23:33.236Z,8.50
2018-11-14T13:26:01.001Z,8.50
2018-11-14T13:28:28.696Z,8.50
2018-11-14T13:30:56.318Z,8.60
2018-11-14T13:33:23.937Z,8.60
2018-11-14T13:35:51.481Z,8.60
2018-11-14T13:38:19.126Z,8.60
2018-11-14T13:40:46.796Z,8.60
2018-11-14T13:43:14.471Z,8.60
2018-11-14T13:45:42.011Z,8.60
2018-11-14T13:48:09.581Z,8.60
2018-11-14T13:50:37.360Z,8.50
2018-11-14T13:53:04.923Z,8.50
2018-11-14T13:55:32.560Z,8.40
2018-11-14T13:58:00.298Z,8.40
2018-11-14T14:00:27.905Z,8.40
2018-11-14T14:02:55.507Z,8.40
2018-11-14T14:05:23.902Z,8.40
2018-11-14T14:07:51.596Z,8.30
2018-11-14T14:10:19.472Z,8.30
2018-11-14T14:12:48.279Z,8.20
2018-11-14T14:15:19.024Z,8.20
2018-11-14T14:17:47.151Z,8.10
2018-11-14T14:20:15.325Z,8.10
2018-11-14T14:22:42.983Z,8.10
2018-11-14T14:25:11.744Z,8.00
2018-11-14T14:27:39.333Z,8.00
2018-11-14T14:30:09.729Z,8.00
2018-11-14T14:32:37.921Z,8.10
2018-11-14T14:35:06.341Z,8.10
2018-11-14T14:37:33.883Z,8.10
2018-11-14T14:40:01.517Z,8.10
2018-11-14T14:42:29.244Z,8.10
2018-11-14T14:44:56.853Z,8.10
2018-11-14T14:47:24.651Z,8.10
2018-11-14T14:49:52.287Z,8.10
2018-11-14T14:52:19.895Z,8.10
2018-11-14T14:54:47.499Z,8.10
2018-11-14T14:57:15.111Z,8.10
2018-11-14T14:59:42.794Z,8.10
2018-11-14T15:02:10.467Z,8.10
2018-11-14T15:04:38.087Z,8.10
2018-11-14T15:07:05.785Z,8.10
2018-11-14T15:09:33.469Z,8.00
2018-11-14T15:12:01.014Z,8.00
2018-11-14T15:14:28.641Z,8.00
2018-11-14T15:16:56.271Z,8.00
2018-11-14T15:19:24.095Z,7.90
2018-11-14T15:21:51.868Z,7.90
2018-11-14T15:24:19.446Z,8.00
2018-11-14T15:26:47.051Z,8.10
2018-11-14T15:29:14.650Z,8.20
2018-11-14T15:31:42.413Z,8.20
2018-11-14T15:34:10.110Z,8.20
2018-11-14T15:36:37.992Z,8.20
2018-11-14T15:39:07.768Z,8.30
2018-11-14T15:41:35.524Z,8.30
2018-11-14T15:44:03.220Z,8.40
2018-11-14T15:46:30.878Z,8.40
2018-11-14T15:48:58.663Z,8.40
2018-11-14T15:51:26.357Z,8.30
2018-11-14T15:53:54.054Z,8.20
2018-11-14T15:56:21.783Z,8.10
2018-11-14T15:58:49.458Z,8.10
2018-11-14T16:01:17.092Z,8.40
2018-11-14T16:03:44.720Z,8.70
2018-11-14T16:06:12.471Z,9.00
2018-11-14T16:08:40.111Z,9.10
2018-11-14T16:11:07.736Z,9.20
2018-11-14T16:13:35.327Z,9.30
2018-11-14T16:16:02.962Z,9.10
2018-11-14T16:18:30.606Z,8.90
2018-11-14T16:20:58.299Z,8.70
2018-11-14T16:23:26.081Z,8.50
2018-11-14T16:25:53.855Z,8.30
2018-11-14T16:28:21.601Z,8.10
2018-11-14T16:30:49.293Z,8.00
2018-11-14T16:33:17.084Z,7.90
2018-11-14T16:35:45.570Z,7.70
2018-11-14T16:38:13.420Z,7.60
2018-11-14T16:40:41.370Z,7.60
2018-11-14T16:43:09.335Z,7.50
2018-11-14T16:45:37.007Z,7.40
2018-11-14T16:48:04.687Z,7.40
2018-11-14T16:50:32.380Z,7.40
2018-11-14T16:53:00.381Z,7.30
2018-11-14T16:55:28.222Z,7.30
2018-11-14T16:57:56.405Z,7.30
2018-11-14T17:00:28.177Z,7.30
2018-11-14T17:02:56.041Z,7.20
2018-11-14T17:05:24.692Z,7.20
2018-11-14T17:07:52.594Z,7.20
2018-11-14T17:10:20.922Z,7.20
2018-11-14T17:12:49.779Z,7.20
2018-11-14T17:15:18.848Z,7.10
2018-11-14T17:17:46.789Z,7.10
2018-11-14T17:20:15.447Z,7.10
2018-11-14T17:22:43.729Z,7.00
2018-11-14T17:25:12.269Z,7.00
2018-11-14T17:27:40.431Z,7.00
2018-11-14T17:30:10.175Z,7.10
2018-11-14T17:32:37.824Z,7.10
2018-11-14T17:35:06.510Z,7.10
2018-11-14T17:37:34.181Z,7.10
2018-11-14T17:40:01.886Z,7.20
2018-11-14T17:42:29.645Z,7.30
2018-11-14T17:44:57.346Z,7.40
2018-11-14T17:47:25.381Z,7.30
2018-11-14T17:49:53.118Z,7.30
2018-11-14T17:52:21.526Z,7.20
2018-11-14T17:54:49.204Z,7.10
2018-11-14T17:57:16.895Z,7.10
2018-11-14T17:59:44.573Z,7.10
2018-11-14T18:02:12.971Z,7.00
2018-11-14T18:04:40.814Z,7.00
2018-11-14T18:07:08.545Z,7.00
2018-11-14T18:09:36.376Z,7.00
2018-11-14T18:12:04.689Z,7.00
2018-11-14T18:14:32.555Z,7.00
2018-11-14T18:17:00.874Z,7.00
2018-11-14T18:19:28.583Z,7.00
2018-11-14T18:21:56.332Z,7.00
2018-11-14T18:24:24.233Z,7.00
2018-11-14T18:26:51.992Z,6.90
2018-11-14T18:29:19.726Z,6.90
2018-11-14T18:31:47.369Z,6.90
2018-11-14T18:34:15.078Z,6.90
2018-11-14T18:36:42.770Z,6.90
2018-11-14T18:39:12.594Z,6.90
2018-11-14T18:41:40.582Z,6.90
2018-11-14T18:44:08.507Z,7.00
2018-11-14T18:46:36.238Z,7.00
2018-11-14T18:49:04.187Z,7.00
2018-11-14T18:51:32.173Z,7.00
2018-11-14T18:54:00.606Z,7.00
2018-11-14T18:56:28.317Z,7.00
2018-11-14T18:58:56.527Z,7.00
2018-11-14T19:01:24.372Z,7.00
2018-11-14T19:03:53.087Z,6.90
2018-11-14T19:06:21.002Z,6.90
2018-11-14T19:08:49.633Z,6.90
2018-11-14T19:11:17.386Z,6.80
2018-11-14T19:13:46.247Z,6.80
2018-11-14T19:16:14.195Z,6.80
2018-11-14T19:18:42.684Z,6.80
2018-11-14T19:21:10.669Z,6.80
2018-11-14T19:23:38.495Z,6.80
2018-11-14T19:26:06.231Z,6.80
2018-11-14T19:28:34.269Z,6.80
2018-11-14T19:31:02.010Z,6.80
2018-11-14T19:33:30.072Z,6.80
2018-11-14T19:35:58.068Z,6.80
2018-11-14T19:38:26.169Z,6.80
2018-11-14T19:40:53.985Z,6.80
2018-11-14T19:43:21.894Z,6.80
2018-11-14T19:45:51.204Z,6.80
2018-11-14T19:48:19.079Z,6.80
2018-11-14T19:50:49.162Z,6.80
2018-11-14T19:53:17.382Z,6.70
2018-11-14T19:55:45.571Z,6.70
2018-11-14T19:58:13.288Z,6.60
2018-11-14T20:00:41.714Z,6.60
2018-11-14T20:03:09.812Z,6.60
2018-11-14T20:05:37.892Z,6.50
2018-11-14T20:08:05.980Z,6.60
2018-11-14T20:10:34.134Z,6.60
2018-11-14T20:13:01.778Z,6.60
2018-11-14T20:15:30.998Z,6.60
2018-11-14T20:17:58.742Z,6.60
2018-11-14T20:20:27.883Z,6.60
2018-11-14T20:22:55.617Z,6.70
2018-11-14T20:25:25.114Z,6.60
2018-11-14T20:27:53.509Z,6.60
2018-11-14T20:30:30.282Z,6.60
2018-11-14T20:33:07.874Z,6.60
2018-11-14T20:35:35.640Z,6.50
2018-11-14T20:38:03.369Z,6.60
2018-11-14T20:40:31.206Z,6.50
2018-11-14T20:42:59.017Z,6.50
2018-11-14T20:45:27.921Z,6.50
2018-11-14T20:47:55.979Z,6.60
2018-11-14T20:50:24.524Z,6.60
2018-11-14T20:52:53.700Z,6.60
2018-11-14T20:55:21.367Z,6.60
2018-11-14T20:57:49.698Z,6.60
2018-11-14T21:00:31.477Z,6.60
2018-11-14T21:02:59.601Z,6.60
2018-11-14T21:05:28.070Z,6.70
2018-11-14T21:07:55.794Z,6.70
2018-11-14T21:10:26.212Z,6.70
2018-11-14T21:12:54.219Z,6.70
2018-11-14T21:15:26.633Z,6.70
2018-11-14T21:17:55.125Z,6.70
2018-11-14T21:20:23.136Z,6.70
2018-11-14T21:22:51.316Z,6.70
2018-11-14T21:25:20.071Z,6.70
2018-11-14T21:27:48.456Z,6.70
2018-11-14T21:30:19.630Z,6.70
2018-11-14T21:32:47.773Z,6.60
2018-11-14T21:35:18.740Z,6.60
2018-11-14T21:37:47.872Z,6.60
2018-11-14T21:40:15.637Z,6.70
2018-11-14T21:42:43.576Z,6.60
2018-11-14T21:45:13.790Z,6.60
2018-11-14T21:47:47.231Z,6.60
2018-11-14T21:50:16.257Z,6.60
2018-11-14T21:52:44.129Z,6.60
2018-11-14T21:55:12.733Z,6.60
2018-11-14T21:57:40.546Z,6.60
2018-11-14T22:00:10.997Z,6.60
2018-11-14T22:02:38.752Z,6.60
2018-11-14T22:05:07.059Z,6.60
2018-11-14T22:07:34.688Z,6.60
2018-11-14T22:10:02.255Z,6.60
2018-11-14T22:12:29.888Z,6.50
2018-11-14T22:14:57.457Z,6.50
2018-11-14T22:17:25.021Z,6.40
2018-11-14T22:19:52.590Z,6.40
2018-11-14T22:22:20.175Z,6.40
2018-11-14T22:24:47.728Z,6.40
2018-11-14T22:27:15.297Z,6.40
2018-11-14T22:29:42.946Z,6.30
2018-11-14T22:32:10.503Z,6.30
2018-11-14T22:34:38.172Z,6.30
2018-11-14T22:37:05.750Z,6.30
2018-11-14T22:39:33.338Z,6.30
2018-11-14T22:42:00.947Z,6.30
2018-11-14T22:44:28.579Z,6.30
2018-11-14T22:46:56.230Z,6.40
2018-11-14T22:49:23.970Z,6.40
2018-11-14T22:51:51.606Z,6.40
2018-11-14T22:54:19.164Z,6.30
2018-11-14T22:56:46.730Z,6.30
2018-11-14T22:59:14.306Z,6.20
2018-11-14T23:01:41.876Z,6.20
2018-11-14T23:04:09.488Z,6.20
2018-11-14T23:06:37.058Z,6.20
2018-11-14T23:09:07.604Z,6.20
2018-11-14T23:11:35.197Z,6.10
2018-11-14T23:14:02.762Z,6.10
2018-11-14T23:16:30.331Z,6.10
2018-11-14T23:18:57.945Z,6.10
2018-11-14T23:21:25.489Z,6.10
2018-11-14T23:23:53.061Z,6.10
2018-11-14T23:26:20.621Z,6.00
2018-11-14T23:28:48.173Z,6.00
2018-11-14T23:31:15.728Z,6.00
2018-11-14T23:33:43.297Z,6.10
2018-11-14T23:36:10.821Z,6.10
2018-11-14T23:38:38.365Z,6.20
2018-11-14T23:41:05.971Z,6.20
2018-11-14T23:43:33.537Z,6.10
2018-11-14T23:46:01.126Z,6.10
2018-11-14T23:48:28.699Z,6.20
2018-11-14T23:50:56.291Z,6.10
2018-11-14T23:53:23.833Z,6.10
2018-11-14T23:55:51.385Z,6.10
2018-11-14T23:58:18.941Z,6.10
